Time;durP1;ratioP1;P1;durP2;ratioP2;P2;SDS_P1;SDS_P2;PMS_P1;PMS_P2;Temp;Humidity;BMP_temperature;BMP_pressure;BME280_temperature;BME280_humidity;BME280_pressure;Samples;Min_cycle;Max_cycle;Signal;HPM_P1;HPM_P2
2021/11/28 00:00:57;;;;;;;4.65;2.80;;;10.80;96.70;;;;;;4869536;29;20044;-73
2021/11/28 00:03:26;;;;;;;3.20;2.67;;;10.80;96.70;;;;;;4869375;29;20465;-73
2021/11/28 00:06:03;;;;;;;5.13;2.88;;;10.70;96.70;;;;;;4879858;29;20058;-73
2021/11/28 00:09:00;;;;;;;3.65;2.72;;;10.70;96.70;;;;;;4886831;29;20041;-73
2021/11/28 00:11:31;;;;;;;4.20;2.90;;;10.80;96.70;;;;;;4882921;29;20443;-73
2021/11/28 00:16:32;;;;;;;5.72;3.72;;;10.80;96.70;;;;;;4872027;29;20056;-73
2021/11/28 00:19:00;;;;;;;4.32;3.03;;;10.70;96.70;;;;;;4872054;29;20666;-72
2021/11/28 00:21:28;;;;;;;3.30;2.60;;;10.70;96.70;;;;;;4889789;29;20456;-73
2021/11/28 00:23:56;;;;;;;6.97;3.58;;;10.80;96.70;;;;;;4869234;29;20139;-73
2021/11/28 00:26:25;;;;;;;5.32;3.45;;;10.80;96.70;;;;;;4886484;29;20411;-73
2021/11/28 00:28:56;;;;;;;4.15;3.30;;;10.90;96.70;;;;;;4873208;29;20048;-73
2021/11/28 00:31:24;;;;;;;5.50;3.80;;;10.80;96.70;;;;;;4874453;29;20044;-72
2021/11/28 00:33:53;;;;;;;6.75;4.50;;;10.70;96.70;;;;;;4868858;29;20043;-73
2021/11/28 00:36:21;;;;;;;7.25;3.65;;;10.70;96.70;;;;;;4869419;29;20049;-73
2021/11/28 00:38:49;;;;;;;7.50;5.03;;;10.70;96.70;;;;;;4885378;29;20357;-73
2021/11/28 00:41:19;;;;;;;5.60;4.30;;;10.70;96.70;;;;;;4868971;29;20172;-73
2021/11/28 00:43:47;;;;;;;3.80;3.40;;;10.80;96.70;;;;;;4887386;29;20337;-73
2021/11/28 00:46:15;;;;;;;5.15;3.42;;;10.80;96.70;;;;;;4889916;29;20512;-73
2021/11/28 00:48:45;;;;;;;3.85;3.00;;;10.70;96.70;;;;;;4868435;29;20088;-73
2021/11/28 00:53:45;;;;;;;5.95;3.47;;;10.60;96.70;;;;;;4871988;29;20116;-73
2021/11/28 00:56:14;;;;;;;4.40;2.95;;;10.70;96.70;;;;;;4871054;29;20320;-73
2021/11/28 00:58:43;;;;;;;5.05;3.50;;;10.60;96.70;;;;;;4869675;29;20043;-73
2021/11/28 01:01:11;;;;;;;4.13;2.90;;;10.60;96.70;;;;;;4869389;29;20052;-73
2021/11/28 01:03:43;;;;;;;4.97;3.25;;;10.70;96.70;;;;;;4874473;29;20049;-73
2021/11/28 01:06:11;;;;;;;4.10;3.15;;;10.70;96.70;;;;;;4886865;29;20504;-73
2021/11/28 01:08:42;;;;;;;5.50;3.80;;;10.60;96.70;;;;;;4867225;29;20045;-73
2021/11/28 01:11:11;;;;;;;5.22;3.80;;;10.70;96.70;;;;;;4868523;29;20537;-73
2021/11/28 01:13:39;;;;;;;5.35;3.92;;;10.60;96.70;;;;;;4884100;29;20057;-73
2021/11/28 01:16:07;;;;;;;5.32;4.20;;;10.70;96.70;;;;;;4870215;29;20508;-73
2021/11/28 01:18:36;;;;;;;8.73;6.10;;;10.70;96.70;;;;;;4874948;29;20131;-73
2021/11/28 01:21:04;;;;;;;11.60;8.35;;;10.60;96.70;;;;;;4856275;29;20059;-73
2021/11/28 01:23:34;;;;;;;9.25;6.85;;;10.50;96.70;;;;;;4874303;29;20060;-73
2021/11/28 01:26:03;;;;;;;9.93;6.70;;;10.30;96.70;;;;;;4890235;29;20048;-73
2021/11/28 01:28:34;;;;;;;7.63;5.45;;;10.40;96.70;;;;;;4873663;29;20346;-73
2021/11/28 01:31:02;;;;;;;8.23;5.60;;;10.40;96.70;;;;;;4873097;29;20066;-73
2021/11/28 01:33:31;;;;;;;9.00;5.68;;;10.50;96.70;;;;;;4874487;29;20040;-73
2021/11/28 01:35:59;;;;;;;5.78;5.18;;;10.40;96.70;;;;;;4872994;29;20049;-73
2021/11/28 01:38:27;;;;;;;6.22;5.28;;;10.20;96.70;;;;;;4878409;29;20507;-73
2021/11/28 01:40:56;;;;;;;6.65;5.50;;;10.30;96.70;;;;;;4869075;29;20608;-73
2021/11/28 01:43:26;;;;;;;8.30;5.32;;;10.40;96.70;;;;;;4887224;29;20135;-73
2021/11/28 01:45:54;;;;;;;7.75;5.82;;;10.40;96.70;;;;;;4872367;29;20075;-73
2021/11/28 01:48:24;;;;;;;6.10;5.20;;;10.40;96.70;;;;;;4872473;29;20093;-73
2021/11/28 01:50:53;;;;;;;7.15;6.45;;;10.40;96.70;;;;;;4890312;29;20044;-73
2021/11/28 01:53:23;;;;;;;8.20;6.43;;;10.40;96.70;;;;;;4873861;29;20225;-73
2021/11/28 01:55:52;;;;;;;7.63;6.55;;;10.40;96.70;;;;;;4871457;29;20642;-73
2021/11/28 01:58:36;;;;;;;8.32;6.80;;;10.50;96.70;;;;;;4878195;29;20133;-73
2021/11/28 02:01:07;;;;;;;7.95;5.97;;;10.50;96.70;;;;;;4886307;29;20056;-72
2021/11/28 02:03:38;;;;;;;7.63;5.85;;;10.40;96.70;;;;;;4871942;29;20590;-73
2021/11/28 02:06:08;;;;;;;8.68;6.32;;;10.50;96.70;;;;;;4874626;29;20053;-73
2021/11/28 02:08:37;;;;;;;7.22;5.05;;;10.50;96.70;;;;;;4887234;29;20048;-72
2021/11/28 02:11:06;;;;;;;7.15;5.35;;;10.50;96.70;;;;;;4886883;29;20068;-73
2021/11/28 02:13:35;;;;;;;6.25;4.82;;;10.50;96.70;;;;;;4890472;29;20056;-73
2021/11/28 02:16:08;;;;;;;10.25;7.53;;;10.40;96.70;;;;;;4875407;29;20542;-73
2021/11/28 02:18:38;;;;;;;8.90;5.55;;;10.20;96.70;;;;;;4855741;29;20131;-73
2021/11/28 02:21:09;;;;;;;7.88;5.43;;;10.20;96.70;;;;;;4877892;29;20056;-74
2021/11/28 02:23:38;;;;;;;6.95;5.03;;;10.10;96.70;;;;;;4873054;29;20071;-73
2021/11/28 02:26:09;;;;;;;9.00;6.03;;;10.00;96.70;;;;;;4873377;29;20621;-74
2021/11/28 02:28:42;;;;;;;6.95;4.85;;;10.00;96.70;;;;;;4886944;29;20044;-73
2021/11/28 02:31:12;;;;;;;6.57;4.32;;;10.10;96.70;;;;;;4889625;29;20076;-73
2021/11/28 02:33:41;;;;;;;6.88;4.13;;;10.10;96.70;;;;;;4858378;29;20056;-73
2021/11/28 02:36:10;;;;;;;6.35;3.80;;;10.10;96.70;;;;;;4875132;29;20104;-73
2021/11/28 02:38:39;;;;;;;8.55;3.80;;;10.10;96.70;;;;;;4872335;29;20077;-73
2021/11/28 02:41:08;;;;;;;4.93;3.22;;;10.10;96.70;;;;;;4871492;29;20056;-73
2021/11/28 02:43:39;;;;;;;6.18;3.20;;;10.00;96.70;;;;;;4873136;29;20511;-73
2021/11/28 02:46:09;;;;;;;7.53;3.15;;;9.90;96.70;;;;;;4883027;29;20064;-73
2021/11/28 02:48:38;;;;;;;7.47;2.95;;;9.90;96.70;;;;;;4878262;29;20036;-74
2021/11/28 02:51:07;;;;;;;5.40;2.17;;;9.80;96.70;;;;;;4875716;29;20500;-74
2021/11/28 02:53:37;;;;;;;4.22;1.88;;;9.80;96.70;;;;;;4872840;29;20121;-73
2021/11/28 02:56:07;;;;;;;3.10;1.20;;;9.80;96.70;;;;;;4856111;29;20041;-73
2021/11/28 02:58:37;;;;;;;1.98;1.30;;;9.90;96.70;;;;;;4889809;29;20400;-73
2021/11/28 03:01:08;;;;;;;2.95;1.05;;;9.90;96.70;;;;;;4876822;29;20589;-73
2021/11/28 03:03:38;;;;;;;5.15;1.15;;;9.90;96.70;;;;;;4870032;29;20053;-73
2021/11/28 03:06:06;;;;;;;3.45;0.90;;;9.90;96.70;;;;;;4871096;29;20048;-73
2021/11/28 03:08:38;;;;;;;3.13;1.00;;;10.00;96.70;;;;;;4878638;29;20059;-73
2021/11/28 03:11:08;;;;;;;4.25;0.75;;;10.10;96.70;;;;;;4889320;29;20063;-73
2021/11/28 03:13:39;;;;;;;3.10;0.70;;;10.10;96.70;;;;;;4872292;29;20525;-73
2021/11/28 03:16:10;;;;;;;6.43;1.08;;;10.20;96.70;;;;;;4854997;29;20135;-73
2021/11/28 03:18:40;;;;;;;9.18;0.82;;;10.30;96.70;;;;;;4877599;29;20072;-73
2021/11/28 03:21:10;;;;;;;6.53;1.00;;;10.20;96.70;;;;;;4872104;29;20128;-73
2021/11/28 03:23:42;;;;;;;4.80;0.70;;;10.20;96.70;;;;;;4890484;29;20060;-73
2021/11/28 03:26:14;;;;;;;1.85;0.63;;;10.20;96.70;;;;;;4889230;29;20505;-73
2021/11/28 03:28:47;;;;;;;4.43;0.93;;;10.20;96.70;;;;;;4889684;29;20039;-73
2021/11/28 03:31:20;;;;;;;5.68;1.20;;;10.20;96.70;;;;;;4887050;29;20055;-73
2021/11/28 03:34:10;;;;;;;5.30;0.75;;;10.20;96.70;;;;;;4846773;29;20060;-73
2021/11/28 03:36:43;;;;;;;7.20;1.20;;;10.20;96.70;;;;;;4853839;29;20101;-74
2021/11/28 03:39:19;;;;;;;5.70;0.80;;;10.30;96.70;;;;;;4870349;29;20843;-73
2021/11/28 03:41:55;;;;;;;4.28;0.77;;;10.30;96.70;;;;;;4884440;29;21757;-73
2021/11/28 03:44:23;;;;;;;7.53;0.80;;;10.30;96.70;;;;;;4870801;29;20071;-73
2021/11/28 03:47:01;;;;;;;3.83;0.98;;;10.40;96.70;;;;;;4877461;29;20160;-74
2021/11/28 03:49:29;;;;;;;3.97;0.60;;;10.60;96.70;;;;;;4869463;29;20053;-73
2021/11/28 03:52:00;;;;;;;3.50;0.70;;;10.70;96.70;;;;;;4869054;29;20131;-74
2021/11/28 03:54:30;;;;;;;3.58;0.60;;;10.80;96.70;;;;;;4855293;29;20743;-74
2021/11/28 03:56:58;;;;;;;4.05;0.80;;;10.80;96.70;;;;;;4853375;29;20044;-74
2021/11/28 03:59:29;;;;;;;5.93;0.93;;;10.70;96.70;;;;;;4868917;29;20400;-74
2021/11/28 04:01:57;;;;;;;4.05;0.80;;;10.60;96.70;;;;;;4883434;29;20072;-73
2021/11/28 04:04:26;;;;;;;5.30;1.00;;;10.60;96.70;;;;;;4855623;29;20044;-74
2021/11/28 04:07:06;;;;;;;4.50;0.77;;;10.60;96.70;;;;;;4869347;29;20060;-74
2021/11/28 04:09:37;;;;;;;3.92;0.88;;;10.60;96.70;;;;;;4867381;29;20060;-73
2021/11/28 04:12:08;;;;;;;6.13;0.77;;;10.50;96.70;;;;;;4860623;29;20216;-73
2021/11/28 04:14:39;;;;;;;5.22;1.10;;;10.50;96.70;;;;;;4886223;29;20068;-74
2021/11/28 04:17:08;;;;;;;6.05;1.00;;;10.60;96.70;;;;;;4881720;29;20055;-74
2021/11/28 04:19:43;;;;;;;7.57;0.85;;;10.60;96.70;;;;;;4868878;29;20072;-73
2021/11/28 04:22:11;;;;;;;5.45;1.20;;;10.60;96.70;;;;;;4868699;29;20052;-74
2021/11/28 04:24:43;;;;;;;4.85;0.77;;;10.60;96.70;;;;;;4869605;29;20037;-74
2021/11/28 04:27:12;;;;;;;8.85;1.45;;;10.70;96.70;;;;;;4871518;29;20064;-73
2021/11/28 04:29:40;;;;;;;3.72;0.82;;;10.70;96.70;;;;;;4886556;29;20049;-74
2021/11/28 04:32:10;;;;;;;5.20;0.85;;;10.70;96.70;;;;;;4869833;29;20511;-74
2021/11/28 04:34:47;;;;;;;6.47;1.40;;;10.70;96.70;;;;;;4857253;29;20056;-74
2021/11/28 04:37:19;;;;;;;5.88;1.58;;;10.70;96.70;;;;;;4884622;29;20176;-74
2021/11/28 04:39:49;;;;;;;7.82;1.15;;;10.70;96.70;;;;;;4886703;29;20399;-73
2021/11/28 04:42:17;;;;;;;6.57;1.02;;;10.70;96.70;;;;;;4858420;29;20056;-73
2021/11/28 04:44:48;;;;;;;6.72;1.10;;;10.70;96.70;;;;;;4852625;29;20053;-73
2021/11/28 04:47:20;;;;;;;4.22;1.10;;;10.70;96.70;;;;;;4850436;29;20056;-73
2021/11/28 04:49:57;;;;;;;8.00;1.42;;;10.70;96.70;;;;;;4851957;29;20213;-73
2021/11/28 04:52:26;;;;;;;7.45;1.00;;;10.70;96.70;;;;;;4852003;29;20056;-73
2021/11/28 04:54:55;;;;;;;6.35;1.10;;;10.70;96.70;;;;;;4856139;29;20160;-74
2021/11/28 04:57:24;;;;;;;8.73;1.58;;;10.70;96.70;;;;;;4870990;29;20488;-74
2021/11/28 04:59:52;;;;;;;4.53;0.95;;;10.60;96.70;;;;;;4855280;29;20049;-73
2021/11/28 05:02:20;;;;;;;4.07;1.00;;;10.70;96.70;;;;;;4854223;29;20041;-73
2021/11/28 05:04:50;;;;;;;5.93;1.10;;;10.70;96.70;;;;;;4872960;29;20041;-73
2021/11/28 05:07:36;;;;;;;6.25;1.23;;;10.80;96.70;;;;;;4871842;29;20063;-73
2021/11/28 05:10:08;;;;;;;4.93;0.70;;;10.80;96.70;;;;;;4855390;29;20577;-73
2021/11/28 05:12:48;;;;;;;7.00;0.88;;;10.90;96.70;;;;;;4857001;29;20045;-74
2021/11/28 05:15:17;;;;;;;3.03;0.63;;;10.90;96.70;;;;;;4870326;29;20061;-73
2021/11/28 05:18:23;;;;;;;6.80;0.65;;;10.90;96.70;;;;;;4871513;29;20061;-74
2021/11/28 05:21:05;;;;;;;4.63;0.73;;;10.80;96.70;;;;;;4848554;29;20409;-74
2021/11/28 05:23:34;;;;;;;5.22;0.80;;;10.80;96.70;;;;;;4855234;29;20101;-74
2021/11/28 05:26:04;;;;;;;8.63;0.93;;;10.70;96.70;;;;;;4869903;29;20124;-73
2021/11/28 05:28:33;;;;;;;6.63;0.77;;;10.70;96.70;;;;;;4853626;29;20061;-73
2021/11/28 05:31:03;;;;;;;4.60;1.02;;;10.70;96.70;;;;;;4868648;29;20045;-73
2021/11/28 05:33:50;;;;;;;10.98;1.58;;;10.80;96.70;;;;;;4871140;29;20670;-74
2021/11/28 05:36:37;;;;;;;9.10;2.03;;;10.80;96.70;;;;;;4869341;29;20059;-73
2021/11/28 05:39:09;;;;;;;8.20;1.25;;;10.70;96.70;;;;;;4853806;29;20059;-74
2021/11/28 05:41:40;;;;;;;10.20;1.75;;;10.70;96.70;;;;;;4862389;29;20053;-73
2021/11/28 05:44:10;;;;;;;5.57;0.90;;;10.70;96.70;;;;;;4870480;29;20067;-74
2021/11/28 05:46:56;;;;;;;6.20;1.23;;;10.70;96.70;;;;;;4871667;29;20068;-73
2021/11/28 05:49:31;;;;;;;7.45;1.13;;;10.70;96.70;;;;;;4890576;29;20255;-73
2021/11/28 05:52:11;;;;;;;5.90;1.10;;;10.80;96.70;;;;;;4875084;29;20068;-74
2021/11/28 05:54:39;;;;;;;5.43;0.98;;;10.80;96.70;;;;;;4884375;29;20427;-74
2021/11/28 05:57:10;;;;;;;5.75;1.20;;;10.80;96.70;;;;;;4885463;29;20089;-74
2021/11/28 05:59:38;;;;;;;9.48;1.27;;;10.80;96.70;;;;;;4887396;29;20071;-73
2021/11/28 06:02:07;;;;;;;8.85;0.90;;;10.90;96.70;;;;;;4886532;29;20068;-73
2021/11/28 06:04:37;;;;;;;9.52;1.25;;;10.90;96.70;;;;;;4871983;29;20461;-74
2021/11/28 06:07:23;;;;;;;7.05;1.13;;;10.90;96.70;;;;;;4889268;29;20080;-73
2021/11/28 06:09:52;;;;;;;8.60;1.40;;;10.90;96.70;;;;;;4858416;29;20086;-74
2021/11/28 06:12:22;;;;;;;5.28;0.80;;;10.90;96.70;;;;;;4871772;29;20172;-74
2021/11/28 06:14:51;;;;;;;7.88;2.05;;;10.90;96.70;;;;;;4868871;29;20086;-74
2021/11/28 06:17:22;;;;;;;4.90;0.70;;;10.90;96.70;;;;;;4873108;29;20119;-73
2021/11/28 06:20:28;;;;;;;6.47;1.02;;;10.90;96.70;;;;;;4877580;29;20037;-74
2021/11/28 06:23:01;;;;;;;5.15;0.60;;;10.90;96.70;;;;;;4873222;29;20116;-74
2021/11/28 06:25:30;;;;;;;6.13;1.13;;;10.90;96.70;;;;;;4871191;29;20040;-74
2021/11/28 06:28:19;;;;;;;6.32;1.48;;;10.80;96.70;;;;;;4859045;29;20072;-74
2021/11/28 06:30:47;;;;;;;4.25;1.00;;;10.80;96.70;;;;;;4885908;29;20044;-74
2021/11/28 06:33:17;;;;;;;6.20;1.10;;;10.80;96.70;;;;;;4887521;29;20052;-74
2021/11/28 06:36:20;;;;;;;7.53;1.10;;;10.80;96.70;;;;;;4841354;29;20141;-73
2021/11/28 06:39:07;;;;;;;6.60;1.00;;;10.90;96.70;;;;;;4887580;29;20108;-73
2021/11/28 06:41:56;;;;;;;5.75;0.82;;;10.90;96.70;;;;;;4848567;29;20606;-73
2021/11/28 06:44:26;;;;;;;7.22;0.85;;;10.90;96.70;;;;;;4851867;29;20057;-73
2021/11/28 06:46:56;;;;;;;10.45;1.45;;;11.00;96.70;;;;;;4853297;29;20041;-73
2021/11/28 06:49:27;;;;;;;6.35;0.70;;;10.90;96.70;;;;;;4851726;29;20131;-73
2021/11/28 06:52:26;;;;;;;5.57;1.10;;;10.90;96.70;;;;;;4857586;29;20053;-73
2021/11/28 06:55:20;;;;;;;;;;;10.90;96.70;;;;;;4842216;29;20057;-73
2021/11/28 06:57:55;;;;;;;2.78;0.80;;;10.80;96.70;;;;;;4852088;29;19928;-73
2021/11/28 07:00:25;;;;;;;4.03;0.55;;;10.80;96.70;;;;;;4870832;29;20059;-74
2021/11/28 07:02:53;;;;;;;6.22;0.90;;;10.70;96.70;;;;;;4836972;29;20055;-73
2021/11/28 07:05:43;;;;;;;8.98;1.13;;;10.70;96.70;;;;;;4867405;29;20504;-73
2021/11/28 07:08:12;;;;;;;6.45;1.02;;;10.60;96.70;;;;;;4868087;29;20615;-73
2021/11/28 07:10:41;;;;;;;7.95;1.15;;;10.60;96.70;;;;;;4856543;29;20052;-73
2021/11/28 07:13:17;;;;;;;7.43;1.55;;;10.60;96.70;;;;;;4865494;29;20072;-74
2021/11/28 07:15:47;;;;;;;4.40;1.27;;;10.50;96.70;;;;;;4866181;29;20061;-73
2021/11/28 07:18:31;;;;;;;7.10;0.90;;;10.50;96.70;;;;;;4849124;29;20491;-73
2021/11/28 07:21:08;;;;;;;6.65;1.05;;;10.50;96.70;;;;;;4855994;29;20534;-73
2021/11/28 07:23:37;;;;;;;7.07;1.00;;;10.50;96.70;;;;;;4869740;29;20093;-74
2021/11/28 07:26:06;;;;;;;5.70;0.80;;;10.50;96.70;;;;;;4869802;29;20044;-74
2021/11/28 07:28:47;;;;;;;5.60;1.20;;;10.50;96.70;;;;;;4869839;29;20411;-73
2021/11/28 07:31:20;;;;;;;6.30;1.00;;;10.50;96.70;;;;;;4865202;29;20049;-73
2021/11/28 07:34:03;;;;;;;7.82;1.20;;;10.40;96.70;;;;;;4868928;29;20044;-74
2021/11/28 07:36:55;;;;;;;8.77;1.55;;;10.40;96.70;;;;;;4861654;29;20524;-73
2021/11/28 07:39:23;;;;;;;4.40;0.85;;;10.40;96.70;;;;;;4852961;29;20627;-73
2021/11/28 07:41:53;;;;;;;4.50;0.82;;;10.50;96.70;;;;;;4869231;29;20064;-73
2021/11/28 07:44:35;;;;;;;6.45;0.90;;;10.50;96.70;;;;;;4888964;29;20056;-73
2021/11/28 07:47:07;;;;;;;4.63;0.93;;;10.60;96.70;;;;;;4873810;29;20076;-73
2021/11/28 07:50:02;;;;;;;5.07;0.80;;;10.70;96.70;;;;;;4886246;29;20468;-73
2021/11/28 07:52:30;;;;;;;4.53;0.88;;;10.70;96.70;;;;;;4871880;29;20049;-73
2021/11/28 07:55:02;;;;;;;5.72;1.55;;;10.80;96.70;;;;;;4870026;29;20385;-73
2021/11/28 07:57:50;;;;;;;4.25;1.20;;;10.90;96.70;;;;;;4884787;29;20139;-73
2021/11/28 08:00:35;;;;;;;6.40;1.42;;;11.00;96.70;;;;;;4884735;29;20100;-73
2021/11/28 08:03:17;;;;;;;7.20;1.65;;;11.10;96.70;;;;;;4883751;29;20049;-74
2021/11/28 08:06:04;;;;;;;11.65;4.80;;;11.20;96.70;;;;;;4878987;29;20131;-73
2021/11/28 08:09:11;;;;;;;7.37;2.97;;;11.40;96.70;;;;;;4844265;29;20053;-73
2021/11/28 08:11:40;;;;;;;8.60;2.70;;;11.50;96.70;;;;;;4844754;29;20195;-74
2021/11/28 08:14:08;;;;;;;7.65;2.55;;;11.60;96.70;;;;;;4858119;29;20457;-73
2021/11/28 08:16:36;;;;;;;8.48;3.05;;;11.60;96.70;;;;;;4891132;29;20040;-73
2021/11/28 08:19:07;;;;;;;6.32;2.65;;;11.60;96.70;;;;;;4887314;29;20048;-74
2021/11/28 08:21:36;;;;;;;4.65;1.50;;;11.80;96.70;;;;;;4871998;29;20101;-74
2021/11/28 08:24:05;;;;;;;5.97;2.40;;;11.80;96.70;;;;;;4870548;29;20056;-74
2021/11/28 08:26:35;;;;;;;5.45;1.00;;;12.00;96.70;;;;;;4862783;29;20416;-73
2021/11/28 08:29:04;;;;;;;6.00;1.40;;;12.10;96.70;;;;;;4888924;29;20491;-74
2021/11/28 08:31:37;;;;;;;5.07;1.13;;;12.20;96.70;;;;;;4874782;29;20576;-74
2021/11/28 08:34:27;;;;;;;6.35;1.08;;;12.20;96.70;;;;;;4896206;29;20089;-75
2021/11/28 08:37:23;;;;;;;6.00;1.10;;;12.20;96.70;;;;;;4878655;29;20181;-74
2021/11/28 08:39:51;;;;;;;4.93;2.10;;;12.20;96.70;;;;;;4886799;29;20064;-76
2021/11/28 08:42:19;;;;;;;6.57;1.20;;;12.20;96.70;;;;;;4893938;29;20057;-75
2021/11/28 08:44:48;;;;;;;5.97;1.55;;;12.30;96.70;;;;;;4892138;29;20115;-75
2021/11/28 08:47:17;;;;;;;5.07;0.95;;;12.30;96.70;;;;;;4889956;29;20056;-76
2021/11/28 08:49:47;;;;;;;5.95;1.55;;;12.30;96.70;;;;;;4890602;29;20040;-76
2021/11/28 08:52:16;;;;;;;4.72;1.17;;;12.30;96.70;;;;;;4877486;29;20131;-77
2021/11/28 08:54:44;;;;;;;7.72;1.83;;;12.40;96.70;;;;;;4891251;29;20040;-78
2021/11/28 08:57:12;;;;;;;6.90;1.98;;;12.50;96.70;;;;;;4871645;29;20500;-77
2021/11/28 08:59:42;;;;;;;6.13;1.90;;;12.60;96.70;;;;;;4887903;29;20032;-77
2021/11/28 09:02:10;;;;;;;5.47;2.50;;;12.60;96.70;;;;;;4889076;29;20104;-76
2021/11/28 09:04:39;;;;;;;7.50;1.52;;;12.50;96.70;;;;;;4873181;29;20048;-76
2021/11/28 09:07:09;;;;;;;8.13;1.73;;;12.60;96.70;;;;;;4871763;29;20068;-77
2021/11/28 09:09:37;;;;;;;7.10;1.23;;;12.60;96.70;;;;;;4889853;29;20046;-76
2021/11/28 09:12:07;;;;;;;3.92;1.35;;;12.60;96.70;;;;;;4872718;29;20040;-78
2021/11/28 09:14:35;;;;;;;5.25;1.40;;;12.60;96.70;;;;;;4870085;29;20499;-77
2021/11/28 09:17:03;;;;;;;3.67;1.10;;;12.50;96.70;;;;;;4873052;29;20052;-77
2021/11/28 09:19:46;;;;;;;5.53;3.00;;;12.40;96.70;;;;;;4872600;29;20096;-77
2021/11/28 09:25:03;;;;;;;3.88;1.20;;;12.70;96.70;;;;;;4869761;29;20064;-78
2021/11/28 09:27:31;;;;;;;6.88;1.17;;;12.70;96.70;;;;;;4887694;29;20120;-75
2021/11/28 09:30:01;;;;;;;3.80;1.13;;;12.90;96.70;;;;;;4887259;29;20063;-76
2021/11/28 09:32:31;;;;;;;3.88;0.68;;;12.80;96.70;;;;;;4868936;29;20037;-76
2021/11/28 09:34:59;;;;;;;5.07;1.25;;;12.70;96.70;;;;;;4887496;29;20570;-77
2021/11/28 09:37:28;;;;;;;2.83;0.70;;;12.70;96.70;;;;;;4870946;29;20052;-76
2021/11/28 09:39:57;;;;;;;5.00;0.80;;;12.60;96.70;;;;;;4868309;29;20036;-75
2021/11/28 09:42:31;;;;;;;5.13;0.55;;;12.40;96.70;;;;;;4871481;29;20119;-76
2021/11/28 09:45:00;;;;;;;4.18;0.60;;;12.20;96.70;;;;;;4888234;29;20049;-76
2021/11/28 09:47:31;;;;;;;9.27;0.90;;;12.10;96.70;;;;;;4886373;29;20053;-77
2021/11/28 09:50:05;;;;;;;7.55;1.27;;;12.10;96.70;;;;;;4872723;29;20044;-77
2021/11/28 09:52:36;;;;;;;5.07;0.80;;;12.00;96.70;;;;;;4870406;29;20495;-77
2021/11/28 09:55:08;;;;;;;4.03;0.65;;;12.00;96.70;;;;;;4871862;29;20049;-78
2021/11/28 09:57:36;;;;;;;2.90;0.85;;;12.00;96.70;;;;;;4870290;29;20100;-78
2021/11/28 10:00:09;;;;;;;5.15;1.00;;;11.90;96.70;;;;;;4886231;29;20842;-79
2021/11/28 10:02:41;;;;;;;2.22;0.70;;;11.90;96.70;;;;;;4887937;29;20040;-79
2021/11/28 10:05:12;;;;;;;6.30;1.38;;;11.80;96.70;;;;;;4869650;29;20045;-78
2021/11/28 10:07:42;;;;;;;5.32;0.60;;;11.80;96.70;;;;;;4870801;29;20311;-81
2021/11/28 10:10:12;;;;;;;4.53;1.33;;;11.60;96.70;;;;;;4892460;29;20056;-79
2021/11/28 10:12:42;;;;;;;8.77;1.00;;;11.30;96.70;;;;;;4872965;29;20039;-79
2021/11/28 10:15:12;;;;;;;6.53;1.02;;;11.10;96.70;;;;;;4867911;29;20053;-78
2021/11/28 10:17:41;;;;;;;6.65;3.03;;;11.00;96.70;;;;;;4884181;29;20060;-78
2021/11/28 10:20:11;;;;;;;5.82;1.45;;;11.00;96.70;;;;;;4889597;29;20054;-78
2021/11/28 10:22:41;;;;;;;3.83;0.73;;;11.00;96.70;;;;;;4888979;29;20049;-78
2021/11/28 10:25:16;;;;;;;5.18;0.70;;;11.00;96.70;;;;;;4872899;29;20101;-78
2021/11/28 10:27:47;;;;;;;4.72;0.77;;;11.00;96.70;;;;;;4887440;29;20677;-79
2021/11/28 10:30:18;;;;;;;5.82;1.40;;;11.00;96.70;;;;;;4889111;29;20885;-79
2021/11/28 10:32:49;;;;;;;5.93;1.00;;;10.90;96.70;;;;;;4871521;29;20144;-80
2021/11/28 10:35:19;;;;;;;4.38;0.63;;;10.70;96.70;;;;;;4885507;29;20072;-81
2021/11/28 10:37:51;;;;;;;3.53;1.00;;;10.50;96.70;;;;;;4869942;29;20036;-77
2021/11/28 10:40:21;;;;;;;6.63;1.52;;;10.30;96.70;;;;;;4868776;29;20299;-78
2021/11/28 10:43:06;;;;;;;6.00;2.30;;;10.30;96.70;;;;;;4870745;29;20060;-78
2021/11/28 10:45:38;;;;;;;7.32;4.28;;;10.20;96.70;;;;;;4870693;29;20116;-80
2021/11/28 10:48:08;;;;;;;11.75;4.65;;;10.10;96.70;;;;;;4869221;29;20074;-79
2021/11/28 10:50:38;;;;;;;13.50;7.25;;;10.10;96.70;;;;;;4881919;29;20051;-80
2021/11/28 10:53:15;;;;;;;14.70;7.15;;;10.00;96.70;;;;;;4873081;29;20104;-79
2021/11/28 10:55:45;;;;;;;11.47;6.67;;;10.00;96.70;;;;;;4886760;29;20047;-77
2021/11/28 10:58:17;;;;;;;5.15;1.30;;;9.90;96.70;;;;;;4886986;29;20697;-77
2021/11/28 11:01:06;;;;;;;4.18;1.05;;;9.80;96.70;;;;;;4871315;29;20040;-78
2021/11/28 11:03:37;;;;;;;3.05;0.88;;;9.70;96.70;;;;;;4854088;29;20120;-77
2021/11/28 11:06:16;;;;;;;4.22;0.85;;;9.70;96.70;;;;;;4869811;29;20048;-78
2021/11/28 11:08:47;;;;;;;4.82;0.95;;;9.40;96.70;;;;;;4868964;29;20523;-78
2021/11/28 11:11:17;;;;;;;1.75;0.50;;;9.10;96.70;;;;;;4880910;29;20546;-78
2021/11/28 11:13:56;;;;;;;5.57;2.33;;;9.00;96.70;;;;;;4868146;29;20055;-76
2021/11/28 11:16:32;;;;;;;5.53;1.77;;;9.00;96.70;;;;;;4884578;29;20147;-77
2021/11/28 11:19:27;;;;;;;5.38;1.83;;;8.80;96.70;;;;;;4857032;29;20438;-75
2021/11/28 11:22:06;;;;;;;4.38;1.00;;;8.50;96.70;;;;;;4881254;29;20748;-76
2021/11/28 11:24:40;;;;;;;2.25;1.00;;;8.40;96.70;;;;;;4874237;29;20051;-76
2021/11/28 11:27:12;;;;;;;2.38;0.60;;;8.30;96.70;;;;;;4871302;29;20049;-77
2021/11/28 11:29:51;;;;;;;2.50;0.68;;;8.30;96.70;;;;;;4883232;29;20051;-77
2021/11/28 11:32:23;;;;;;;4.90;0.82;;;8.50;96.70;;;;;;4879520;29;20045;-77
2021/11/28 11:34:54;;;;;;;5.53;0.70;;;8.70;96.70;;;;;;4869934;29;20050;-75
2021/11/28 11:37:25;;;;;;;3.08;0.65;;;8.70;96.70;;;;;;4887085;29;20086;-76
2021/11/28 11:39:57;;;;;;;3.42;1.10;;;8.70;96.70;;;;;;4870442;29;20060;-77
2021/11/28 11:42:28;;;;;;;4.82;1.45;;;8.80;96.70;;;;;;4881604;29;20056;-77
2021/11/28 11:44:57;;;;;;;2.50;0.98;;;9.00;96.70;;;;;;4887957;29;20049;-79
2021/11/28 11:47:25;;;;;;;10.63;4.63;;;9.00;96.70;;;;;;4869949;29;20052;-78
2021/11/28 11:49:54;;;;;;;8.27;5.15;;;9.00;96.70;;;;;;4869573;29;20051;-78
2021/11/28 11:52:23;;;;;;;7.82;3.97;;;9.00;96.70;;;;;;4870621;29;20291;-78
2021/11/28 11:54:53;;;;;;;8.13;4.32;;;9.10;96.70;;;;;;4870528;29;20048;-77
2021/11/28 11:57:27;;;;;;;8.18;4.15;;;9.30;96.70;;;;;;4869640;29;20052;-77
2021/11/28 12:00:14;;;;;;;7.38;4.15;;;9.50;96.70;;;;;;4869024;29;20053;-77
2021/11/28 12:02:43;;;;;;;;;;;9.60;96.70;;;;;;4888215;29;20510;-76
2021/11/28 12:05:34;;;;;;;8.05;4.25;;;9.70;96.70;;;;;;4867017;29;19933;-77
2021/11/28 12:08:21;;;;;;;7.57;3.97;;;9.70;96.70;;;;;;4871655;29;20037;-75
2021/11/28 12:11:02;;;;;;;7.30;2.67;;;9.70;96.70;;;;;;4890869;29;20686;-76
2021/11/28 12:13:53;;;;;;;7.40;1.70;;;9.70;96.70;;;;;;4872131;29;20047;-77
2021/11/28 12:16:31;;;;;;;3.78;1.10;;;9.80;96.70;;;;;;4884020;29;20044;-77
2021/11/28 12:18:59;;;;;;;3.40;1.10;;;9.80;96.70;;;;;;4888568;29;20040;-75
2021/11/28 12:21:41;;;;;;;3.47;1.17;;;9.80;96.70;;;;;;4886985;29;20040;-76
2021/11/28 12:24:11;;;;;;;7.72;2.38;;;9.90;96.70;;;;;;4868411;29;20075;-75
2021/11/28 12:26:45;;;;;;;7.20;2.92;;;9.90;96.70;;;;;;4883277;29;20072;-75
2021/11/28 12:29:45;;;;;;;4.13;1.20;;;10.00;96.70;;;;;;4867146;29;20644;-75
2021/11/28 12:32:26;;;;;;;4.00;1.35;;;10.00;96.70;;;;;;4855194;29;20477;-74
2021/11/28 12:34:58;;;;;;;3.78;1.45;;;10.10;96.70;;;;;;4869217;29;20050;-74
2021/11/28 12:37:29;;;;;;;9.13;4.38;;;10.20;96.70;;;;;;4884942;29;20437;-74
2021/11/28 12:40:17;;;;;;;5.18;1.25;;;10.20;96.70;;;;;;4867600;29;20045;-74
2021/11/28 12:42:46;;;;;;;10.20;1.60;;;10.30;96.70;;;;;;4867231;29;20057;-74
2021/11/28 12:45:31;;;;;;;6.53;1.98;;;10.40;96.70;;;;;;4867571;29;20041;-75
2021/11/28 12:48:08;;;;;;;9.93;2.83;;;10.40;96.70;;;;;;4868927;29;20546;-74
2021/11/28 12:50:52;;;;;;;6.07;1.80;;;10.50;96.70;;;;;;4868283;29;20065;-74
2021/11/28 12:53:29;;;;;;;10.48;4.32;;;10.50;96.70;;;;;;4869207;29;20044;-74
2021/11/28 12:56:21;;;;;;;7.70;3.30;;;10.60;96.70;;;;;;4882265;29;20155;-73
2021/11/28 12:59:15;;;;;;;8.45;2.75;;;10.70;96.70;;;;;;4869326;29;20056;-73
2021/11/28 13:02:00;;;;;;;7.40;1.98;;;10.70;96.70;;;;;;4864206;29;20507;-74
2021/11/28 13:04:49;;;;;;;7.30;1.77;;;11.10;96.70;;;;;;4866364;29;20527;-76
2021/11/28 13:07:29;;;;;;;8.05;1.00;;;11.30;96.70;;;;;;4864611;29;20088;-75
2021/11/28 13:10:21;;;;;;;9.85;1.17;;;11.10;96.70;;;;;;4868746;29;20513;-74
2021/11/28 13:12:49;;;;;;;5.93;0.93;;;11.20;96.70;;;;;;4868640;29;20051;-76
2021/11/28 13:15:23;;;;;;;4.45;1.08;;;11.30;96.70;;;;;;4871059;29;20051;-74
2021/11/28 13:17:54;;;;;;;1.90;0.43;;;11.50;96.70;;;;;;4887735;29;20140;-74
2021/11/28 13:20:24;;;;;;;6.20;0.65;;;11.70;96.70;;;;;;4855812;29;20564;-76
2021/11/28 13:23:14;;;;;;;3.53;1.27;;;11.70;96.70;;;;;;4885536;29;20055;-75
2021/11/28 13:26:01;;;;;;;3.22;1.05;;;11.70;96.70;;;;;;4887531;29;20458;-73
2021/11/28 13:28:36;;;;;;;3.80;0.80;;;11.60;96.70;;;;;;4869243;29;20498;-75